Celebrity Galaxy — 9HJH9 — position and weather

sailwx.info

Track history (hours):
 
Tides and Currents Weather Stations Pressure Air Temp Water Temp Dewpoint Dewpoint Depression Visibility Wind Speed Wind Dir Waves Ship Positions

Celebrity Galaxy

Last reported at 2020-Aug-09 06:41 UTC. Time now 2020-Aug-10 01:22 UTC.
Position N 50°36' W 002°22'.

Length 262 m; draft 8.2 m.

Type: Passenger vessel. MMSI: 249051000.

Date/timePositionNaut miles runAvg speedWind from/ knotsBaromVisibWave heightAir tempDewpointWater temp
2020-Aug-09 06:41N 50°36' W 002°22'0 0.0
2020-Aug-08 12:44N 50°36' W 002°22'0 0.0
2020-Aug-08 11:14N 50°36' W 002°22'0 0.0
2020-Aug-08 09:28N 50°36' W 002°22'0 0.0
2020-Aug-08 08:55N 50°36' W 002°22'0 0.1
2020-Aug-08 07:57N 50°36' W 002°22'0 0.0
2020-Aug-08 04:54N 50°36' W 002°22'0 0.0
2020-Aug-08 03:54N 50°36' W 002°22'0 0.0
2020-Aug-08 03:15N 50°36' W 002°22'0 0.0
2020-Aug-08 02:54N 50°36' W 002°22'0 0.0
2020-Aug-08 00:57N 50°36' W 002°22'0 0.0
2020-Aug-07 23:54N 50°36' W 002°22'0 0.0
2020-Aug-07 22:00N 50°36' W 002°22'0 0.0
2020-Aug-07 19:30N 50°36' W 002°22'0 0.0
2020-Aug-07 17:17N 50°36' W 002°22'3 3.8
2020-Aug-07 16:30N 50°33' W 002°23'17 6.8
2020-Aug-07 14:00N 50°25' W 002°46'9 8.5
2020-Aug-07 13:00N 50°23' W 002°59'4 8.9
2020-Aug-07 12:30N 50°22' W 003°06'14 7.1
2020-Aug-07 10:30N 50°20' W 003°28'0 0.0
2020-Aug-07 10:00N 50°20' W 003°28'0 0.0
2020-Aug-07 06:30N 50°20' W 003°28'0 0.0
2020-Aug-07 05:00N 50°20' W 003°28'0 0.0
2020-Aug-07 04:28N 50°20' W 003°28'0 0.0
2020-Aug-07 03:58N 50°20' W 003°28'0 0.0
2020-Aug-07 03:28N 50°20' W 003°28'0 0.0
2020-Aug-07 01:00N 50°20' W 003°28'0 0.0
2020-Aug-06 23:28N 50°20' W 003°28'0 0.0
2020-Aug-06 21:28N 50°20' W 003°28'0 0.0
2020-Aug-06 19:59N 50°20' W 003°28'0 0.0
2020-Aug-06 15:58N 50°20' W 003°28'0 0.0
2020-Aug-06 13:28N 50°20' W 003°28'0 0.0
2020-Aug-06 05:58N 50°20' W 003°28'0 0.0
2020-Aug-06 05:28N 50°20' W 003°28'0 0.0
2020-Aug-06 04:28N 50°20' W 003°28'0 0.0
2020-Aug-06 03:58N 50°20' W 003°28'0 0.0
2020-Aug-06 01:58N 50°20' W 003°29'0 0.2
2020-Aug-06 01:28N 50°20' W 003°28'0 0.0
2020-Aug-05 22:25N 50°20' W 003°28'0 0.0
2020-Aug-05 19:58N 50°20' W 003°28'0 0.0
2020-Aug-05 19:28N 50°20' W 003°28'0 0.0
2020-Aug-05 17:28N 50°20' W 003°28'0 0.0
2020-Aug-05 13:59N 50°20' W 003°28'0 0.1
2020-Aug-05 12:58N 50°20' W 003°28'0 0.0
2020-Aug-05 12:28N 50°20' W 003°28'0 0.0
2020-Aug-05 09:30N 50°20' W 003°28'0 0.0
2020-Aug-05 06:29N 50°20' W 003°28'0 0.0
2020-Aug-05 04:29N 50°20' W 003°28'0 0.0
2020-Aug-05 00:29N 50°20' W 003°28'0 0.1
2020-Aug-04 22:29N 50°20' W 003°28'0 0.0
2020-Aug-04 20:58N 50°20' W 003°28'0 0.1
2020-Aug-04 19:58N 50°20' W 003°28'0 0.0
2020-Aug-04 16:58N 50°20' W 003°28'2 0.4
2020-Aug-04 11:00N 50°22' W 003°27'0 0.1
2020-Aug-04 09:30N 50°22' W 003°27'0 0.0
2020-Aug-04 09:00N 50°22' W 003°27'0 0.0
2020-Aug-04 08:30N 50°22' W 003°27'0 0.0
2020-Aug-04 05:00N 50°22' W 003°27'0 0.0
2020-Aug-04 04:00N 50°22' W 003°27'0 0.0
2020-Aug-04 03:00N 50°22' W 003°27'0 0.0
2020-Aug-03 22:30N 50°22' W 003°27'0 0.0
2020-Aug-03 17:30N 50°22' W 003°27'0 0.0
2020-Aug-03 16:30N 50°22' W 003°27'0 0.0
2020-Aug-03 15:30N 50°22' W 003°27'0 0.0
2020-Aug-03 13:00N 50°22' W 003°27'0 0.0
2020-Aug-03 11:00N 50°22' W 003°27'0 0.0
2020-Aug-03 10:00N 50°22' W 003°27'0 0.0
2020-Aug-03 09:30N 50°22' W 003°27'0 0.0
2020-Aug-03 09:00N 50°22' W 003°27'0 0.0
2020-Aug-03 07:00N 50°22' W 003°27'0 0.0
2020-Aug-03 05:30N 50°22' W 003°27'0 0.0
2020-Aug-03 04:30N 50°22' W 003°27'0 0.0
2020-Aug-03 03:30N 50°22' W 003°27'0 0.0
2020-Aug-03 00:00N 50°22' W 003°27'0 0.0
2020-Aug-02 17:30N 50°22' W 003°27'0 0.1
2020-Aug-02 16:30N 50°22' W 003°27'0 0.0
2020-Aug-02 13:30N 50°22' W 003°27'0 0.0
2020-Aug-02 13:00N 50°22' W 003°27'0 0.0
2020-Aug-02 12:30N 50°22' W 003°27'0 0.0
2020-Aug-02 10:30N 50°22' W 003°27'0 0.0
2020-Aug-02 10:00N 50°22' W 003°27'0 0.0
2020-Aug-02 06:30N 50°22' W 003°27'8 5.3
2020-Aug-02 05:00N 50°22' W 003°14'4 7.8
2020-Aug-02 04:30N 50°18' W 003°12'3 6.5
2020-Aug-02 04:00N 50°17' W 003°08'8 7.8
2020-Aug-02 03:00N 50°17' W 002°56'8 7.8
2020-Aug-02 02:00N 50°18' W 002°44'4 3.7
2020-Aug-02 01:00N 50°17' W 002°38'21 1.9
2020-Aug-01 13:48N 50°36' W 002°22'0 0.0
2020-Aug-01 00:30N 50°36' W 002°22'0 0.0
2020-Aug-01 00:00N 50°36' W 002°22'0 0.0
2020-Jul-31 11:55N 50°36' W 002°22'0 0.1
2020-Jul-31 10:00N 50°36' W 002°22'0 0.0
2020-Jul-31 06:30N 50°36' W 002°22'0 0.1
2020-Jul-31 06:00N 50°36' W 002°22'0 0.0
2020-Jul-31 05:00N 50°36' W 002°22'0 0.1
2020-Jul-31 04:00N 50°36' W 002°22'0 0.0
2020-Jul-31 00:59N 50°36' W 002°22'0 0.1
2020-Jul-31 00:29N 50°36' W 002°22'0 0.0
2020-Jul-30 22:30N 50°36' W 002°22'0 0.0
2020-Jul-30 21:24N 50°36' W 002°22'0 0.0
2020-Jul-30 20:30N 50°36' W 002°22'0 0.0
2020-Jul-30 19:30N 50°36' W 002°22'0 0.0
2020-Jul-30 13:30N 50°36' W 002°22'0 0.0
2020-Jul-30 10:27N 50°36' W 002°22'0 0.0
2020-Jul-30 08:58N 50°36' W 002°22'0 0.0
2020-Jul-30 08:29N 50°36' W 002°22'  
Track history (hours):
 
Tides and Currents Weather Stations Pressure Air Temp Water Temp Dewpoint Dewpoint Depression Visibility Wind Speed Wind Dir Waves Ship Positions

Celebrity Galaxy

Last reported at 2020-Aug-09 06:41 UTC. Time now 2020-Aug-10 01:22 UTC.
Position N 50°36' W 002°22'.

Length 262 m; draft 8.2 m.

Type: Passenger vessel. MMSI: 249051000.

Date/timePositionNaut miles runAvg speedWind from/ knotsBaromVisibWave heightAir tempDewpointWater temp
2020-Aug-09 06:41N 50°36' W 002°22'0 0.0
2020-Aug-08 12:44N 50°36' W 002°22'0 0.0
2020-Aug-08 11:14N 50°36' W 002°22'0 0.0
2020-Aug-08 09:28N 50°36' W 002°22'0 0.0
2020-Aug-08 08:55N 50°36' W 002°22'0 0.1
2020-Aug-08 07:57N 50°36' W 002°22'0 0.0
2020-Aug-08 04:54N 50°36' W 002°22'0 0.0
2020-Aug-08 03:54N 50°36' W 002°22'0 0.0
2020-Aug-08 03:15N 50°36' W 002°22'0 0.0
2020-Aug-08 02:54N 50°36' W 002°22'0 0.0
2020-Aug-08 00:57N 50°36' W 002°22'0 0.0
2020-Aug-07 23:54N 50°36' W 002°22'0 0.0
2020-Aug-07 22:00N 50°36' W 002°22'0 0.0
2020-Aug-07 19:30N 50°36' W 002°22'0 0.0
2020-Aug-07 17:17N 50°36' W 002°22'3 3.8
2020-Aug-07 16:30N 50°33' W 002°23'17 6.8
2020-Aug-07 14:00N 50°25' W 002°46'9 8.5
2020-Aug-07 13:00N 50°23' W 002°59'4 8.9
2020-Aug-07 12:30N 50°22' W 003°06'14 7.1
2020-Aug-07 10:30N 50°20' W 003°28'0 0.0
2020-Aug-07 10:00N 50°20' W 003°28'0 0.0
2020-Aug-07 06:30N 50°20' W 003°28'0 0.0
2020-Aug-07 05:00N 50°20' W 003°28'0 0.0
2020-Aug-07 04:28N 50°20' W 003°28'0 0.0
2020-Aug-07 03:58N 50°20' W 003°28'0 0.0
2020-Aug-07 03:28N 50°20' W 003°28'0 0.0
2020-Aug-07 01:00N 50°20' W 003°28'0 0.0
2020-Aug-06 23:28N 50°20' W 003°28'0 0.0
2020-Aug-06 21:28N 50°20' W 003°28'0 0.0
2020-Aug-06 19:59N 50°20' W 003°28'0 0.0
2020-Aug-06 15:58N 50°20' W 003°28'0 0.0
2020-Aug-06 13:28N 50°20' W 003°28'0 0.0
2020-Aug-06 05:58N 50°20' W 003°28'0 0.0
2020-Aug-06 05:28N 50°20' W 003°28'0 0.0
2020-Aug-06 04:28N 50°20' W 003°28'0 0.0
2020-Aug-06 03:58N 50°20' W 003°28'0 0.0
2020-Aug-06 01:58N 50°20' W 003°29'0 0.2
2020-Aug-06 01:28N 50°20' W 003°28'0 0.0
2020-Aug-05 22:25N 50°20' W 003°28'0 0.0
2020-Aug-05 19:58N 50°20' W 003°28'0 0.0
2020-Aug-05 19:28N 50°20' W 003°28'0 0.0
2020-Aug-05 17:28N 50°20' W 003°28'0 0.0
2020-Aug-05 13:59N 50°20' W 003°28'0 0.1
2020-Aug-05 12:58N 50°20' W 003°28'0 0.0
2020-Aug-05 12:28N 50°20' W 003°28'0 0.0
2020-Aug-05 09:30N 50°20' W 003°28'0 0.0
2020-Aug-05 06:29N 50°20' W 003°28'0 0.0
2020-Aug-05 04:29N 50°20' W 003°28'0 0.0
2020-Aug-05 00:29N 50°20' W 003°28'0 0.1
2020-Aug-04 22:29N 50°20' W 003°28'0 0.0
2020-Aug-04 20:58N 50°20' W 003°28'0 0.1
2020-Aug-04 19:58N 50°20' W 003°28'0 0.0
2020-Aug-04 16:58N 50°20' W 003°28'2 0.4
2020-Aug-04 11:00N 50°22' W 003°27'0 0.1
2020-Aug-04 09:30N 50°22' W 003°27'0 0.0
2020-Aug-04 09:00N 50°22' W 003°27'0 0.0
2020-Aug-04 08:30N 50°22' W 003°27'0 0.0
2020-Aug-04 05:00N 50°22' W 003°27'0 0.0
2020-Aug-04 04:00N 50°22' W 003°27'0 0.0
2020-Aug-04 03:00N 50°22' W 003°27'0 0.0
2020-Aug-03 22:30N 50°22' W 003°27'0 0.0
2020-Aug-03 17:30N 50°22' W 003°27'0 0.0
2020-Aug-03 16:30N 50°22' W 003°27'0 0.0
2020-Aug-03 15:30N 50°22' W 003°27'0 0.0
2020-Aug-03 13:00N 50°22' W 003°27'0 0.0
2020-Aug-03 11:00N 50°22' W 003°27'0 0.0
2020-Aug-03 10:00N 50°22' W 003°27'0 0.0
2020-Aug-03 09:30N 50°22' W 003°27'0 0.0
2020-Aug-03 09:00N 50°22' W 003°27'0 0.0
2020-Aug-03 07:00N 50°22' W 003°27'0 0.0
2020-Aug-03 05:30N 50°22' W 003°27'0 0.0
2020-Aug-03 04:30N 50°22' W 003°27'0 0.0
2020-Aug-03 03:30N 50°22' W 003°27'0 0.0
2020-Aug-03 00:00N 50°22' W 003°27'0 0.0
2020-Aug-02 17:30N 50°22' W 003°27'0 0.1
2020-Aug-02 16:30N 50°22' W 003°27'0 0.0
2020-Aug-02 13:30N 50°22' W 003°27'0 0.0
2020-Aug-02 13:00N 50°22' W 003°27'0 0.0
2020-Aug-02 12:30N 50°22' W 003°27'0 0.0
2020-Aug-02 10:30N 50°22' W 003°27'0 0.0
2020-Aug-02 10:00N 50°22' W 003°27'0 0.0
2020-Aug-02 06:30N 50°22' W 003°27'8 5.3
2020-Aug-02 05:00N 50°22' W 003°14'4 7.8
2020-Aug-02 04:30N 50°18' W 003°12'3 6.5
2020-Aug-02 04:00N 50°17' W 003°08'8 7.8
2020-Aug-02 03:00N 50°17' W 002°56'8 7.8
2020-Aug-02 02:00N 50°18' W 002°44'4 3.7
2020-Aug-02 01:00N 50°17' W 002°38'21 1.9
2020-Aug-01 13:48N 50°36' W 002°22'0 0.0
2020-Aug-01 00:30N 50°36' W 002°22'0 0.0
2020-Aug-01 00:00N 50°36' W 002°22'0 0.0
2020-Jul-31 11:55N 50°36' W 002°22'0 0.1
2020-Jul-31 10:00N 50°36' W 002°22'0 0.0
2020-Jul-31 06:30N 50°36' W 002°22'0 0.1
2020-Jul-31 06:00N 50°36' W 002°22'0 0.0
2020-Jul-31 05:00N 50°36' W 002°22'0 0.1
2020-Jul-31 04:00N 50°36' W 002°22'0 0.0
2020-Jul-31 00:59N 50°36' W 002°22'0 0.1
2020-Jul-31 00:29N 50°36' W 002°22'0 0.0
2020-Jul-30 22:30N 50°36' W 002°22'0 0.0
2020-Jul-30 21:24N 50°36' W 002°22'0 0.0
2020-Jul-30 20:30N 50°36' W 002°22'0 0.0
2020-Jul-30 19:30N 50°36' W 002°22'0 0.0
2020-Jul-30 13:30N 50°36' W 002°22'0 0.0
2020-Jul-30 10:27N 50°36' W 002°22'0 0.0
2020-Jul-30 08:58N 50°36' W 002°22'0 0.0
2020-Jul-30 08:29N 50°36' W 002°22'  

Dump ship's entire track history